createdAt,value
2022-10-07T00:02:26.610Z,16.48
2022-10-07T00:04:53.443Z,17.98
2022-10-07T00:07:21.015Z,17.08
2022-10-07T00:09:47.843Z,17.08
2022-10-07T00:12:14.832Z,17.88
2022-10-07T00:14:42.626Z,17.45
2022-10-07T00:17:09.487Z,16.38
2022-10-07T00:19:36.413Z,17.98
2022-10-07T00:22:03.490Z,19.17
2022-10-07T00:24:30.349Z,16.00
2022-10-07T00:26:57.128Z,16.70
2022-10-07T00:29:24.250Z,16.88
2022-10-07T00:31:56.272Z,16.92
2022-10-07T00:34:24.013Z,17.00
2022-10-07T00:36:51.108Z,17.13
2022-10-07T00:39:18.144Z,17.20
2022-10-07T00:41:50.457Z,16.73
2022-10-07T00:44:32.635Z,17.95
2022-10-07T00:47:04.225Z,18.00
2022-10-07T00:49:32.076Z,17.15
2022-10-07T00:51:58.814Z,17.60
2022-10-07T00:54:25.566Z,16.80
2022-10-07T00:56:52.649Z,17.20
2022-10-07T00:59:19.487Z,18.52
2022-10-07T01:01:46.351Z,17.02
2022-10-07T01:04:13.803Z,17.15
2022-10-07T01:06:40.856Z,17.52
2022-10-07T01:09:07.908Z,17.25
2022-10-07T01:11:40.991Z,17.30
2022-10-07T01:14:16.682Z,15.93
2022-10-07T01:17:08.558Z,18.50
2022-10-07T01:19:56.847Z,17.15
2022-10-07T01:22:54.384Z,17.30
2022-10-07T01:25:40.600Z,18.48
2022-10-07T01:28:27.416Z,19.50
2022-10-07T01:30:56.670Z,18.17
2022-10-07T01:33:27.808Z,17.58
2022-10-07T01:35:55.432Z,17.50
2022-10-07T01:38:22.912Z,18.25
2022-10-07T01:40:54.313Z,16.67
2022-10-07T01:43:21.349Z,17.67
2022-10-07T01:45:49.215Z,18.08
2022-10-07T01:48:16.473Z,18.23
2022-10-07T01:50:43.333Z,18.30
2022-10-07T01:53:16.556Z,18.13
2022-10-07T01:56:25.403Z,18.33
2022-10-07T01:58:58.384Z,17.08
2022-10-07T02:01:34.216Z,18.95
2022-10-07T02:04:07.055Z,17.85
2022-10-07T02:06:47.110Z,18.70
2022-10-07T02:09:26.028Z,18.95
2022-10-07T02:11:57.366Z,17.92
2022-10-07T02:14:26.644Z,18.85
2022-10-07T02:16:56.878Z,19.02
2022-10-07T02:19:45.049Z,20.48
2022-10-07T02:22:11.846Z,19.98
2022-10-07T02:24:39.013Z,19.85
2022-10-07T02:27:11.097Z,19.45
2022-10-07T02:29:38.584Z,19.45
2022-10-07T02:32:17.345Z,20.25
2022-10-07T02:34:44.203Z,19.20
2022-10-07T02:37:14.840Z,18.50
2022-10-07T02:39:43.607Z,21.10
2022-10-07T02:42:17.295Z,19.25
2022-10-07T02:44:49.121Z,19.42
2022-10-07T02:47:29.068Z,20.13
2022-10-07T02:49:57.314Z,20.10
2022-10-07T02:52:24.186Z,20.02
2022-10-07T02:55:13.003Z,19.38
2022-10-07T02:57:42.530Z,18.98
2022-10-07T03:00:11.317Z,18.98
2022-10-07T03:02:49.189Z,19.05
2022-10-07T03:05:19.265Z,19.67
2022-10-07T03:07:50.978Z,19.40
2022-10-07T03:10:18.186Z,20.48
2022-10-07T03:12:45.397Z,18.75
2022-10-07T03:15:12.204Z,19.30
2022-10-07T03:17:40.150Z,19.75
2022-10-07T03:20:08.157Z,19.77
2022-10-07T03:22:35.144Z,19.70
2022-10-07T03:25:02.227Z,19.85
2022-10-07T03:27:29.224Z,18.83
2022-10-07T03:29:58.508Z,18.65
2022-10-07T03:32:27.519Z,19.25
2022-10-07T03:34:54.527Z,20.35
2022-10-07T03:37:24.708Z,20.08
2022-10-07T03:39:52.740Z,19.50
2022-10-07T03:42:21.002Z,20.50
2022-10-07T03:44:49.620Z,20.30
2022-10-07T03:47:21.798Z,19.83
2022-10-07T03:49:48.684Z,19.65
2022-10-07T03:52:15.784Z,20.48
2022-10-07T03:54:43.591Z,20.00
2022-10-07T03:57:28.949Z,21.05
2022-10-07T03:59:55.996Z,21.33
2022-10-07T04:02:23.571Z,20.55
2022-10-07T04:04:53.368Z,19.52
2022-10-07T04:07:22.119Z,20.60
2022-10-07T04:09:49.261Z,21.05
2022-10-07T04:12:16.555Z,22.15
2022-10-07T04:14:43.668Z,20.75
2022-10-07T04:17:10.491Z,22.40
2022-10-07T04:19:37.417Z,20.42
2022-10-07T04:22:08.887Z,21.73
2022-10-07T04:24:36.337Z,21.88
2022-10-07T04:27:06.538Z,20.95
2022-10-07T04:29:38.292Z,20.73
2022-10-07T04:32:05.800Z,21.02
2022-10-07T04:34:32.576Z,20.13
2022-10-07T04:37:01.185Z,20.67
2022-10-07T04:39:49.023Z,21.55
2022-10-07T04:42:33.848Z,21.75
2022-10-07T04:45:00.663Z,20.23
2022-10-07T04:47:27.707Z,21.67
2022-10-07T04:49:55.189Z,21.25
2022-10-07T04:52:22.256Z,22.88
2022-10-07T04:54:49.124Z,20.83
2022-10-07T04:57:16.196Z,21.63
2022-10-07T04:59:43.335Z,22.60
2022-10-07T05:02:10.660Z,20.48
2022-10-07T05:04:37.494Z,19.98
2022-10-07T05:07:04.851Z,20.83
2022-10-07T05:09:31.636Z,21.73
2022-10-07T05:11:58.694Z,19.92
2022-10-07T05:14:25.507Z,20.85
2022-10-07T05:16:52.697Z,21.52
2022-10-07T05:19:20.181Z,23.33
2022-10-07T05:21:47.045Z,22.35
2022-10-07T05:24:14.060Z,22.58
2022-10-07T05:26:40.879Z,21.13
2022-10-07T05:29:07.966Z,21.10
2022-10-07T05:31:34.834Z,22.15
2022-10-07T05:34:02.167Z,23.08
2022-10-07T05:36:29.245Z,20.73
2022-10-07T05:38:58.158Z,22.05
2022-10-07T05:41:25.479Z,23.05
2022-10-07T05:43:52.338Z,24.45
2022-10-07T05:46:23.703Z,23.05
2022-10-07T05:48:51.867Z,24.00
2022-10-07T05:51:22.755Z,21.85
2022-10-07T05:53:49.630Z,21.92
2022-10-07T05:56:18.150Z,23.67
2022-10-07T05:58:46.095Z,23.83
2022-10-07T06:01:17.450Z,22.15
2022-10-07T06:03:48.968Z,21.77
2022-10-07T06:06:15.953Z,22.88
2022-10-07T06:08:42.810Z,22.77
2022-10-07T06:11:28.578Z,22.10
2022-10-07T06:13:55.797Z,20.60
2022-10-07T06:16:23.456Z,20.98
2022-10-07T06:18:52.525Z,22.00
2022-10-07T06:21:20.128Z,21.63
2022-10-07T06:23:53.784Z,22.80
2022-10-07T06:26:21.106Z,20.77
2022-10-07T06:28:48.299Z,21.02
2022-10-07T06:31:16.955Z,21.48
2022-10-07T06:33:44.107Z,20.33
2022-10-07T06:36:11.881Z,20.65
2022-10-07T06:38:44.173Z,21.50
2022-10-07T06:41:11.002Z,19.75
2022-10-07T06:43:38.082Z,22.15
2022-10-07T06:46:05.732Z,19.92
2022-10-07T06:48:33.862Z,19.83
2022-10-07T06:51:03.363Z,19.77
2022-10-07T06:53:30.824Z,20.65
2022-10-07T06:56:01.836Z,22.00
2022-10-07T06:58:28.980Z,20.92
2022-10-07T07:00:56.507Z,21.17
2022-10-07T07:03:23.918Z,21.35
2022-10-07T07:05:55.082Z,22.40
2022-10-07T07:08:23.615Z,21.05
2022-10-07T07:10:51.060Z,21.00
2022-10-07T07:13:19.805Z,20.95
2022-10-07T07:15:57.452Z,20.83
2022-10-07T07:18:25.183Z,20.63
2022-10-07T07:20:52.104Z,20.15
2022-10-07T07:23:19.456Z,20.13
2022-10-07T07:25:46.473Z,21.83
2022-10-07T07:28:14.989Z,20.70
2022-10-07T07:30:42.211Z,20.95
2022-10-07T07:33:09.393Z,20.38
2022-10-07T07:35:38.071Z,19.88
2022-10-07T07:38:05.113Z,19.23
2022-10-07T07:40:31.918Z,20.25
2022-10-07T07:42:58.981Z,20.00
2022-10-07T07:45:25.767Z,20.35
2022-10-07T07:47:52.974Z,17.67
2022-10-07T07:50:27.067Z,19.33
2022-10-07T07:52:57.351Z,19.87
2022-10-07T07:55:24.607Z,18.80
2022-10-07T07:57:51.615Z,19.70
2022-10-07T08:00:19.045Z,19.85
2022-10-07T08:02:46.601Z,18.30
2022-10-07T08:05:13.521Z,18.70
2022-10-07T08:07:40.552Z,18.35
2022-10-07T08:10:07.676Z,18.00
2022-10-07T08:12:34.719Z,18.48
2022-10-07T08:15:01.520Z,17.13
2022-10-07T08:17:28.380Z,18.02
2022-10-07T08:19:56.244Z,16.77
2022-10-07T08:22:23.079Z,17.85
2022-10-07T08:24:49.893Z,16.75
2022-10-07T08:27:16.945Z,17.83
2022-10-07T08:29:43.761Z,17.88
2022-10-07T08:32:10.625Z,17.60
2022-10-07T08:34:37.675Z,16.00
2022-10-07T08:37:04.475Z,17.35
2022-10-07T08:39:31.367Z,16.92
2022-10-07T08:41:58.407Z,16.52
2022-10-07T08:44:28.436Z,17.00
2022-10-07T08:47:02.070Z,15.65
2022-10-07T08:49:54.496Z,16.83
2022-10-07T08:52:39.666Z,15.57
2022-10-07T08:55:33.253Z,16.20
2022-10-07T08:58:20.726Z,16.48
2022-10-07T09:00:53.333Z,16.92
2022-10-07T09:03:26.312Z,15.57
2022-10-07T09:05:53.351Z,15.68
2022-10-07T09:08:32.907Z,14.98
2022-10-07T09:11:15.756Z,16.17
2022-10-07T09:13:48.163Z,14.73
2022-10-07T09:16:23.469Z,14.32
2022-10-07T09:18:54.462Z,14.85
2022-10-07T09:21:31.427Z,15.35
2022-10-07T09:24:21.128Z,14.95
2022-10-07T09:26:48.214Z,14.25
2022-10-07T09:29:17.373Z,14.25
2022-10-07T09:31:44.358Z,13.45
2022-10-07T09:34:27.696Z,13.60
2022-10-07T09:37:13.499Z,13.43
2022-10-07T09:39:40.560Z,12.88
2022-10-07T09:42:09.544Z,13.48
2022-10-07T09:44:36.349Z,12.30
2022-10-07T09:47:17.578Z,13.30
2022-10-07T09:49:45.278Z,13.38
2022-10-07T09:52:23.551Z,12.55
2022-10-07T09:54:52.110Z,12.45
2022-10-07T09:57:29.576Z,11.60
2022-10-07T10:00:11.731Z,11.27
2022-10-07T10:02:39.998Z,11.93
2022-10-07T10:05:23.954Z,11.43
2022-10-07T10:08:04.998Z,11.98
2022-10-07T10:10:35.336Z,12.52
2022-10-07T10:13:03.965Z,10.90
2022-10-07T10:15:39.677Z,11.57
2022-10-07T10:18:29.008Z,11.88
2022-10-07T10:20:56.451Z,11.63
2022-10-07T10:23:30.346Z,11.43
2022-10-07T10:26:18.863Z,10.15
2022-10-07T10:28:47.992Z,11.38
2022-10-07T10:31:30.939Z,10.38
2022-10-07T10:34:10.258Z,10.70
2022-10-07T10:36:38.700Z,11.77
2022-10-07T10:39:30.010Z,10.60
2022-10-07T10:41:58.230Z,10.73
2022-10-07T10:44:47.101Z,9.90
2022-10-07T10:47:45.374Z,10.25
2022-10-07T10:50:15.879Z,11.32
2022-10-07T10:52:49.677Z,10.90
2022-10-07T10:55:35.076Z,10.45
2022-10-07T10:58:08.777Z,11.00
2022-10-07T11:01:00.041Z,9.20
2022-10-07T11:03:36.809Z,9.77
2022-10-07T11:06:05.923Z,10.48
2022-10-07T11:08:38.165Z,9.93
2022-10-07T11:11:08.805Z,9.38
2022-10-07T11:13:46.865Z,9.85
2022-10-07T11:16:39.941Z,9.57
2022-10-07T11:19:20.177Z,9.70
2022-10-07T11:21:51.277Z,9.57
2022-10-07T11:24:35.222Z,8.73
2022-10-07T11:27:19.250Z,9.05
2022-10-07T11:29:58.700Z,8.77
2022-10-07T11:32:40.016Z,8.02
2022-10-07T11:35:17.889Z,7.97
2022-10-07T11:37:52.302Z,8.27
2022-10-07T11:40:19.477Z,8.27
2022-10-07T11:42:49.996Z,8.13
2022-10-07T11:45:22.168Z,8.13
2022-10-07T11:47:52.198Z,8.25
2022-10-07T11:50:20.956Z,7.97
2022-10-07T11:52:49.451Z,7.70
2022-10-07T11:55:27.452Z,7.10
2022-10-07T11:57:56.654Z,7.47
2022-10-07T12:00:28.870Z,7.13
2022-10-07T12:02:56.786Z,6.97
2022-10-07T12:05:36.171Z,7.40
2022-10-07T12:08:38.562Z,7.05
2022-10-07T12:11:12.416Z,6.85
2022-10-07T12:13:40.345Z,7.18
2022-10-07T12:16:30.275Z,7.05
2022-10-07T12:19:06.391Z,7.20
2022-10-07T12:22:04.750Z,6.88
2022-10-07T12:24:32.823Z,6.40
2022-10-07T12:27:07.002Z,6.25
2022-10-07T12:29:47.071Z,7.07
2022-10-07T12:32:46.606Z,7.45
2022-10-07T12:35:35.224Z,7.68
2022-10-07T12:38:14.200Z,6.55
2022-10-07T12:41:25.146Z,6.45
2022-10-07T12:44:21.432Z,6.25
2022-10-07T12:46:59.559Z,6.97
2022-10-07T12:50:04.771Z,6.15
2022-10-07T12:52:34.779Z,6.22
2022-10-07T12:55:28.513Z,6.18
2022-10-07T12:58:14.816Z,6.35
2022-10-07T13:00:49.811Z,6.30
2022-10-07T13:03:36.592Z,6.03
2022-10-07T13:06:46.807Z,7.40
2022-10-07T13:09:35.000Z,5.97
2022-10-07T13:12:08.172Z,5.78
2022-10-07T13:14:53.305Z,6.28
2022-10-07T13:17:40.588Z,6.40
2022-10-07T13:20:20.144Z,6.15
2022-10-07T13:22:48.301Z,6.70
2022-10-07T13:25:18.684Z,6.30
2022-10-07T13:27:55.987Z,6.13
2022-10-07T13:30:40.060Z,6.53
2022-10-07T13:33:28.884Z,6.47
2022-10-07T13:36:40.732Z,6.28
2022-10-07T13:39:20.459Z,6.93
2022-10-07T13:41:48.978Z,6.10
2022-10-07T13:44:18.499Z,5.95
2022-10-07T13:47:05.214Z,6.20
2022-10-07T13:49:38.061Z,6.05
2022-10-07T13:52:06.330Z,6.30
2022-10-07T13:54:33.519Z,5.65
2022-10-07T13:57:02.395Z,6.10
2022-10-07T13:59:29.305Z,6.55
2022-10-07T14:01:58.363Z,6.75
2022-10-07T14:04:26.095Z,6.18
2022-10-07T14:07:01.908Z,6.13
2022-10-07T14:09:31.955Z,6.80
2022-10-07T14:12:05.109Z,6.65
2022-10-07T14:14:43.166Z,6.70
2022-10-07T14:17:35.359Z,6.72
2022-10-07T14:20:05.502Z,6.88
2022-10-07T14:22:39.443Z,6.88
2022-10-07T14:25:15.960Z,6.88
2022-10-07T14:27:45.720Z,6.45
2022-10-07T14:30:29.514Z,6.93
2022-10-07T14:33:32.567Z,6.35
2022-10-07T14:36:19.755Z,6.78
2022-10-07T14:38:48.168Z,7.70
2022-10-07T14:41:16.347Z,7.30
2022-10-07T14:43:44.895Z,6.80
2022-10-07T14:46:24.592Z,6.38
2022-10-07T14:48:52.442Z,6.93
2022-10-07T14:51:25.361Z,7.20
2022-10-07T14:54:03.807Z,6.95
2022-10-07T14:56:33.727Z,6.60
2022-10-07T14:59:00.891Z,6.75
2022-10-07T15:01:29.726Z,6.65
2022-10-07T15:03:57.526Z,7.25
2022-10-07T15:06:24.646Z,7.15
2022-10-07T15:08:51.477Z,6.80
2022-10-07T15:11:19.637Z,7.18
2022-10-07T15:13:47.806Z,7.05
2022-10-07T15:16:23.407Z,7.03
2022-10-07T15:18:52.970Z,6.88
2022-10-07T15:21:21.687Z,6.93
2022-10-07T15:23:55.161Z,7.25
2022-10-07T15:26:24.365Z,7.47
2022-10-07T15:28:56.425Z,7.82
2022-10-07T15:31:25.040Z,7.88
2022-10-07T15:33:57.926Z,8.32
2022-10-07T15:36:25.822Z,9.27
2022-10-07T15:38:53.220Z,9.50
2022-10-07T15:41:29.451Z,11.48
2022-10-07T15:43:58.186Z,12.50
2022-10-07T15:46:25.091Z,13.40
2022-10-07T15:48:56.309Z,12.52
2022-10-07T15:51:27.276Z,11.50
2022-10-07T15:53:54.211Z,11.23
2022-10-07T15:56:21.170Z,11.25
2022-10-07T15:58:48.177Z,10.68
2022-10-07T16:01:15.614Z,11.13
2022-10-07T16:03:44.431Z,10.50
2022-10-07T16:06:22.154Z,10.50
2022-10-07T16:08:49.797Z,10.32
2022-10-07T16:11:17.163Z,11.77
2022-10-07T16:13:45.362Z,10.50
2022-10-07T16:16:14.782Z,10.68
2022-10-07T16:18:43.299Z,10.32
2022-10-07T16:21:24.266Z,10.15
2022-10-07T16:23:52.267Z,10.57
2022-10-07T16:26:21.367Z,9.45
2022-10-07T16:29:08.092Z,11.27
2022-10-07T16:31:36.729Z,10.30
2022-10-07T16:34:03.980Z,11.48
2022-10-07T16:36:30.816Z,11.43
2022-10-07T16:39:03.155Z,10.68
2022-10-07T16:41:30.366Z,10.50
2022-10-07T16:43:57.766Z,12.32
2022-10-07T16:46:24.992Z,10.63
2022-10-07T16:48:52.427Z,10.90
2022-10-07T16:51:24.168Z,11.35
2022-10-07T16:53:54.312Z,12.02
2022-10-07T16:56:21.160Z,13.40
2022-10-07T16:58:48.256Z,12.77
2022-10-07T17:01:16.163Z,13.35
2022-10-07T17:03:49.992Z,13.70
2022-10-07T17:06:18.524Z,13.30
2022-10-07T17:08:48.326Z,12.80
2022-10-07T17:11:29.222Z,12.07
2022-10-07T17:14:07.555Z,14.60
2022-10-07T17:16:45.569Z,12.93
2022-10-07T17:19:13.979Z,14.02
2022-10-07T17:21:42.378Z,13.95
2022-10-07T17:24:09.697Z,13.48
2022-10-07T17:26:37.527Z,16.05
2022-10-07T17:29:09.912Z,17.85
2022-10-07T17:31:39.124Z,20.30
2022-10-07T17:34:06.699Z,21.38
2022-10-07T17:36:33.601Z,22.70
2022-10-07T17:39:00.489Z,22.55
2022-10-07T17:41:31.953Z,24.92
2022-10-07T17:44:00.122Z,26.48
2022-10-07T17:46:28.519Z,25.77
2022-10-07T17:48:56.644Z,26.13
2022-10-07T17:51:27.198Z,26.75
2022-10-07T17:53:57.164Z,28.20
2022-10-07T17:56:24.210Z,29.33
2022-10-07T17:58:51.048Z,27.83
2022-10-07T18:01:33.905Z,28.65
2022-10-07T18:04:05.648Z,29.63
2022-10-07T18:06:36.683Z,28.40
2022-10-07T18:09:12.726Z,28.52
2022-10-07T18:11:58.066Z,31.17
2022-10-07T18:14:43.752Z,28.40
2022-10-07T18:17:10.634Z,29.23
2022-10-07T18:19:39.610Z,28.92
2022-10-07T18:22:06.492Z,29.65
2022-10-07T18:24:33.560Z,27.58
2022-10-07T18:27:00.731Z,28.80
2022-10-07T18:29:28.734Z,29.50
2022-10-07T18:31:56.372Z,29.02
2022-10-07T18:34:23.401Z,29.25
2022-10-07T18:36:55.223Z,31.63
2022-10-07T18:39:23.753Z,30.77
2022-10-07T18:41:50.967Z,30.67
2022-10-07T18:44:17.733Z,32.03
2022-10-07T18:46:44.957Z,31.10
2022-10-07T18:49:13.871Z,31.52
2022-10-07T18:51:41.437Z,33.40
2022-10-07T18:54:08.554Z,32.72
2022-10-07T18:56:39.933Z,32.92
2022-10-07T18:59:08.185Z,31.98
2022-10-07T19:01:35.112Z,32.70
2022-10-07T19:04:02.362Z,33.17
2022-10-07T19:06:30.823Z,33.55
2022-10-07T19:08:59.181Z,34.90
2022-10-07T19:11:26.215Z,31.92
2022-10-07T19:13:56.475Z,34.72
2022-10-07T19:16:23.460Z,35.28
2022-10-07T19:18:51.882Z,36.35
2022-10-07T19:21:20.039Z,36.30
2022-10-07T19:23:48.080Z,34.63
2022-10-07T19:26:20.930Z,35.30
2022-10-07T19:28:49.012Z,34.90
2022-10-07T19:31:24.382Z,35.53
2022-10-07T19:33:58.357Z,34.33
2022-10-07T19:36:25.384Z,34.22
2022-10-07T19:38:53.244Z,33.88
2022-10-07T19:41:21.606Z,34.40
2022-10-07T19:43:49.100Z,34.03
2022-10-07T19:46:16.328Z,33.63
2022-10-07T19:48:43.159Z,35.53
2022-10-07T19:51:14.475Z,33.58
2022-10-07T19:53:46.570Z,35.30
2022-10-07T19:56:20.400Z,37.20
2022-10-07T19:58:54.550Z,37.22
2022-10-07T20:01:31.924Z,35.87
2022-10-07T20:04:03.518Z,36.28
2022-10-07T20:06:30.827Z,38.28
2022-10-07T20:08:57.785Z,37.78
2022-10-07T20:11:25.391Z,38.03
2022-10-07T20:13:54.355Z,40.03
2022-10-07T20:16:22.906Z,38.03
2022-10-07T20:18:50.843Z,39.50
2022-10-07T20:21:23.847Z,38.80
2022-10-07T20:23:52.201Z,38.58
2022-10-07T20:26:23.840Z,40.20
2022-10-07T20:28:51.924Z,38.15
2022-10-07T20:31:21.341Z,39.67
2022-10-07T20:33:49.955Z,40.20
2022-10-07T20:36:18.888Z,41.63
2022-10-07T20:39:04.494Z,38.53
2022-10-07T20:41:57.518Z,40.22
2022-10-07T20:44:24.593Z,40.80
2022-10-07T20:46:51.985Z,40.88
2022-10-07T20:49:22.534Z,42.05
2022-10-07T20:51:52.865Z,40.72
2022-10-07T20:54:20.559Z,40.30
2022-10-07T20:56:47.536Z,42.28
2022-10-07T20:59:14.665Z,41.05
2022-10-07T21:01:41.658Z,41.67
2022-10-07T21:04:09.212Z,42.47
2022-10-07T21:06:36.396Z,40.90
2022-10-07T21:09:03.458Z,41.35
2022-10-07T21:11:30.406Z,40.28
2022-10-07T21:13:57.527Z,40.90
2022-10-07T21:16:24.771Z,40.97
2022-10-07T21:18:51.550Z,42.17
2022-10-07T21:21:18.682Z,41.80
2022-10-07T21:23:45.489Z,42.25
2022-10-07T21:26:12.460Z,41.95
2022-10-07T21:28:39.644Z,42.20
2022-10-07T21:31:10.480Z,39.58
2022-10-07T21:33:39.769Z,42.45
2022-10-07T21:36:08.154Z,43.25
2022-10-07T21:38:35.027Z,40.10
2022-10-07T21:41:11.989Z,40.33
2022-10-07T21:43:40.047Z,42.53
2022-10-07T21:46:07.091Z,41.72
2022-10-07T21:48:33.920Z,40.78
2022-10-07T21:51:05.730Z,44.85
2022-10-07T21:53:35.553Z,42.83
2022-10-07T21:56:03.825Z,43.15
2022-10-07T21:58:31.076Z,42.63
2022-10-07T22:00:57.918Z,43.85
2022-10-07T22:03:24.940Z,42.38
2022-10-07T22:05:51.759Z,42.83
2022-10-07T22:08:37.244Z,42.20
2022-10-07T22:11:07.335Z,42.70
2022-10-07T22:13:40.466Z,42.08
2022-10-07T22:16:14.864Z,40.75
2022-10-07T22:18:43.521Z,41.42
2022-10-07T22:21:19.405Z,41.72
2022-10-07T22:23:57.022Z,41.22
2022-10-07T22:26:25.726Z,41.90
2022-10-07T22:28:52.584Z,39.50
2022-10-07T22:31:19.521Z,41.17
2022-10-07T22:33:54.419Z,40.70
2022-10-07T22:36:22.040Z,39.25
2022-10-07T22:38:49.257Z,40.25
2022-10-07T22:41:17.668Z,38.75
2022-10-07T22:43:45.529Z,38.53
2022-10-07T22:46:26.132Z,39.90
2022-10-07T22:48:54.241Z,40.67
2022-10-07T22:51:21.327Z,41.28
2022-10-07T22:53:51.466Z,40.92
2022-10-07T22:56:18.440Z,40.80
2022-10-07T22:58:50.886Z,42.08
2022-10-07T23:01:17.766Z,39.42
2022-10-07T23:03:44.916Z,39.55
2022-10-07T23:06:12.971Z,40.63
2022-10-07T23:08:39.952Z,41.42
2022-10-07T23:11:07.267Z,40.65
2022-10-07T23:13:35.185Z,43.75
2022-10-07T23:16:04.044Z,41.20
2022-10-07T23:18:31.447Z,42.50
2022-10-07T23:21:08.704Z,40.00
2022-10-07T23:23:36.665Z,41.15
2022-10-07T23:26:05.404Z,42.20
2022-10-07T23:28:34.004Z,41.53
2022-10-07T23:31:08.508Z,41.45
2022-10-07T23:33:35.584Z,40.83
2022-10-07T23:36:05.512Z,42.00
2022-10-07T23:38:33.234Z,40.40
2022-10-07T23:41:00.635Z,41.38
2022-10-07T23:43:28.003Z,42.33
2022-10-07T23:45:54.732Z,41.72
2022-10-07T23:48:21.552Z,43.42
2022-10-07T23:50:49.312Z,43.60
2022-10-07T23:53:17.296Z,41.53
2022-10-07T23:55:48.000Z,42.00
2022-10-07T23:58:15.498Z,41.58
